Time,TemperatureF,DewpointF,PressureIn,WindDirection,WindDirectionDegrees,WindSpeedMPH,WindSpeedGustMPH,Humidity,HourlyPrecipIn,Conditions,Clouds,dailyrainin,SoftwareType,DateUTC
2013-09-11 00:01:00,74.9,69.8,30.06,North,0,0.0,0.0,84,0.00,,,0.00,WUHU216HW,2013-09-11 04:01:00,
2013-09-11 00:06:00,74.9,69.8,30.06,North,0,0.0,0.0,84,0.00,,,0.00,WUHU216HW,2013-09-11 04:06:00,
2013-09-11 00:11:00,74.7,69.6,30.06,North,0,0.0,0.0,84,0.00,,,0.00,WUHU216HW,2013-09-11 04:11:00,
2013-09-11 00:16:00,74.7,69.6,30.06,North,0,0.0,0.0,84,0.00,,,0.00,WUHU216HW,2013-09-11 04:16:00,
2013-09-11 00:21:00,74.7,69.6,30.06,North,0,0.0,0.0,84,0.00,,,0.00,WUHU216HW,2013-09-11 04:21:00,
2013-09-11 00:26:00,74.9,69.8,30.06,North,0,0.0,0.0,84,0.00,,,0.00,WUHU216HW,2013-09-11 04:26:00,
2013-09-11 00:31:00,74.7,69.6,30.06,North,0,0.0,0.0,84,0.00,,,0.00,WUHU216HW,2013-09-11 04:31:00,
2013-09-11 00:36:00,74.7,69.6,30.06,North,0,0.0,0.0,84,0.00,,,0.00,WUHU216HW,2013-09-11 04:36:00,
2013-09-11 00:41:00,74.7,69.6,30.06,North,0,0.0,0.0,84,0.00,,,0.00,WUHU216HW,2013-09-11 04:41:00,
2013-09-11 00:46:00,74.7,69.6,30.06,North,0,0.0,0.0,84,0.00,,,0.00,WUHU216HW,2013-09-11 04:46:00,
2013-09-11 00:51:00,74.7,69.6,30.06,North,0,0.0,0.0,84,0.00,,,0.00,WUHU216HW,2013-09-11 04:51:00,
2013-09-11 00:56:00,74.7,69.6,30.05,North,0,0.0,0.0,84,0.00,,,0.00,WUHU216HW,2013-09-11 04:56:00,
2013-09-11 01:01:00,74.7,69.6,30.06,North,0,0.0,0.0,84,0.00,,,0.00,WUHU216HW,2013-09-11 05:01:00,
2013-09-11 01:06:00,74.5,69.4,30.06,North,0,0.0,0.0,84,0.00,,,0.00,WUHU216HW,2013-09-11 05:06:00,
2013-09-11 01:11:00,74.5,69.4,30.05,North,0,0.0,0.0,84,0.00,,,0.00,WUHU216HW,2013-09-11 05:11:00,
2013-09-11 01:16:00,74.5,69.4,30.06,North,0,0.0,0.0,84,0.00,,,0.00,WUHU216HW,2013-09-11 05:16:00,
2013-09-11 01:21:00,74.5,69.4,30.06,North,0,0.0,0.0,84,0.00,,,0.00,WUHU216HW,2013-09-11 05:21:00,
2013-09-11 01:26:00,74.3,69.2,30.05,North,0,0.0,0.0,84,0.00,,,0.00,WUHU216HW,2013-09-11 05:26:00,
2013-09-11 01:31:00,74.3,69.2,30.05,North,0,0.0,0.0,84,0.00,,,0.00,WUHU216HW,2013-09-11 05:31:00,
2013-09-11 01:36:00,74.2,69.0,30.05,North,0,0.0,0.0,84,0.00,,,0.00,WUHU216HW,2013-09-11 05:36:00,
2013-09-11 01:41:00,74.2,69.0,30.05,North,0,0.0,0.0,84,0.00,,,0.00,WUHU216HW,2013-09-11 05:41:00,
2013-09-11 01:46:00,74.2,69.4,30.05,North,0,0.0,0.0,85,0.00,,,0.00,WUHU216HW,2013-09-11 05:46:00,
2013-09-11 01:51:00,74.0,69.2,30.05,North,0,0.0,0.0,85,0.00,,,0.00,WUHU216HW,2013-09-11 05:51:00,
2013-09-11 01:56:00,73.8,69.0,30.05,North,0,0.0,0.0,85,0.00,,,0.00,WUHU216HW,2013-09-11 05:56:00,
2013-09-11 02:01:00,73.8,69.0,30.05,North,0,0.0,0.0,85,0.00,,,0.00,WUHU216HW,2013-09-11 06:01:00,
2013-09-11 02:06:00,73.8,69.0,30.04,North,0,0.0,0.0,85,0.00,,,0.00,WUHU216HW,2013-09-11 06:06:00,
2013-09-11 02:11:00,73.8,69.0,30.04,North,0,0.0,0.0,85,0.00,,,0.00,WUHU216HW,2013-09-11 06:11:00,
2013-09-11 02:16:00,73.8,69.0,30.04,North,0,0.0,0.0,85,0.00,,,0.00,WUHU216HW,2013-09-11 06:16:00,
2013-09-11 02:21:00,73.8,69.0,30.04,North,0,0.0,0.0,85,0.00,,,0.00,WUHU216HW,2013-09-11 06:21:00,
2013-09-11 02:26:00,73.6,68.9,30.04,North,0,0.0,0.0,85,0.00,,,0.00,WUHU216HW,2013-09-11 06:26:00,
2013-09-11 02:31:00,73.6,68.9,30.04,North,0,0.0,0.0,85,0.00,,,0.00,WUHU216HW,2013-09-11 06:31:00,
2013-09-11 02:36:00,73.6,68.9,30.04,North,0,0.0,0.0,85,0.00,,,0.00,WUHU216HW,2013-09-11 06:36:00,
2013-09-11 02:41:00,73.6,68.9,30.04,North,0,0.0,0.0,85,0.00,,,0.00,WUHU216HW,2013-09-11 06:41:00,
2013-09-11 02:46:00,73.6,68.9,30.04,North,0,0.0,0.0,85,0.00,,,0.00,WUHU216HW,2013-09-11 06:46:00,
2013-09-11 02:51:00,73.6,68.9,30.03,North,0,0.0,0.0,85,0.00,,,0.00,WUHU216HW,2013-09-11 06:51:00,
2013-09-11 02:56:00,73.6,68.9,30.03,North,0,0.0,0.0,85,0.00,,,0.00,WUHU216HW,2013-09-11 06:56:00,
2013-09-11 03:01:00,73.6,69.2,30.03,North,0,0.0,0.0,86,0.00,,,0.00,WUHU216HW,2013-09-11 07:01:00,
2013-09-11 03:07:00,73.8,69.4,30.03,North,0,0.0,0.0,86,0.00,,,0.00,WUHU216HW,2013-09-11 07:07:00,
2013-09-11 03:12:00,73.8,69.4,30.03,North,0,0.0,0.0,86,0.00,,,0.00,WUHU216HW,2013-09-11 07:12:00,
2013-09-11 03:17:00,73.8,69.4,30.03,North,0,0.0,0.0,86,0.00,,,0.00,WUHU216HW,2013-09-11 07:17:00,
2013-09-11 03:22:00,73.8,69.4,30.03,North,0,0.0,0.0,86,0.00,,,0.00,WUHU216HW,2013-09-11 07:22:00,
2013-09-11 03:27:00,73.8,69.4,30.03,North,0,0.0,0.0,86,0.00,,,0.00,WUHU216HW,2013-09-11 07:27:00,
2013-09-11 03:32:00,73.8,69.4,30.03,North,0,0.0,0.0,86,0.00,,,0.00,WUHU216HW,2013-09-11 07:32:00,
2013-09-11 03:37:00,73.8,69.4,30.03,North,0,0.0,0.0,86,0.00,,,0.00,WUHU216HW,2013-09-11 07:37:00,
2013-09-11 03:42:00,73.8,69.4,30.03,North,0,0.0,0.0,86,0.00,,,0.00,WUHU216HW,2013-09-11 07:42:00,
2013-09-11 03:47:00,73.8,69.4,30.03,North,0,0.0,0.0,86,0.00,,,0.00,WUHU216HW,2013-09-11 07:47:00,
2013-09-11 03:52:00,73.8,69.4,30.03,North,0,0.0,0.0,86,0.00,,,0.00,WUHU216HW,2013-09-11 07:52:00,
2013-09-11 03:57:00,73.8,69.4,30.03,North,0,0.0,0.0,86,0.00,,,0.00,WUHU216HW,2013-09-11 07:57:00,
2013-09-11 04:02:00,73.8,69.4,30.03,North,0,0.0,0.0,86,0.00,,,0.00,WUHU216HW,2013-09-11 08:02:00,
2013-09-11 04:07:00,73.8,69.8,30.03,North,0,0.0,0.0,87,0.00,,,0.00,WUHU216HW,2013-09-11 08:07:00,
2013-09-11 04:12:00,74.0,69.9,30.03,North,0,0.0,0.0,87,0.00,,,0.00,WUHU216HW,2013-09-11 08:12:00,
2013-09-11 04:17:00,74.0,69.9,30.03,North,0,0.0,0.0,87,0.00,,,0.00,WUHU216HW,2013-09-11 08:17:00,
2013-09-11 04:22:00,74.2,70.1,30.02,North,0,0.0,0.0,87,0.00,,,0.00,WUHU216HW,2013-09-11 08:22:00,
2013-09-11 04:27:00,74.2,70.1,30.02,North,0,0.0,0.0,87,0.00,,,0.00,WUHU216HW,2013-09-11 08:27:00,
2013-09-11 04:32:00,74.3,70.3,30.02,North,0,0.0,0.0,87,0.00,,,0.00,WUHU216HW,2013-09-11 08:32:00,
2013-09-11 04:37:00,74.3,70.3,30.02,North,0,0.0,0.0,87,0.00,,,0.00,WUHU216HW,2013-09-11 08:37:00,
2013-09-11 04:42:00,74.5,70.5,30.02,North,0,0.0,0.0,87,0.00,,,0.00,WUHU216HW,2013-09-11 08:42:00,
2013-09-11 04:47:00,74.5,70.5,30.02,North,0,0.0,0.0,87,0.00,,,0.00,WUHU216HW,2013-09-11 08:47:00,
2013-09-11 04:52:00,74.5,70.5,30.02,North,0,0.0,0.0,87,0.00,,,0.00,WUHU216HW,2013-09-11 08:52:00,
2013-09-11 04:57:00,74.5,70.5,30.03,North,0,0.0,0.0,87,0.00,,,0.00,WUHU216HW,2013-09-11 08:57:00,
2013-09-11 05:02:00,74.5,70.5,30.03,North,0,0.0,0.0,87,0.00,,,0.00,WUHU216HW,2013-09-11 09:02:00,
2013-09-11 05:07:00,74.5,70.5,30.03,North,0,0.0,0.0,87,0.00,,,0.00,WUHU216HW,2013-09-11 09:07:00,
2013-09-11 05:12:00,74.5,70.5,30.03,North,0,0.0,0.0,87,0.00,,,0.00,WUHU216HW,2013-09-11 09:12:00,
2013-09-11 05:17:00,74.5,70.5,30.03,North,0,0.0,0.0,87,0.00,,,0.00,WUHU216HW,2013-09-11 09:17:00,
2013-09-11 05:22:00,74.5,70.5,30.03,North,0,0.0,0.0,87,0.00,,,0.00,WUHU216HW,2013-09-11 09:22:00,
2013-09-11 05:27:00,74.3,70.3,30.03,North,0,0.0,0.0,87,0.00,,,0.00,WUHU216HW,2013-09-11 09:27:00,
2013-09-11 05:32:00,74.3,70.3,30.03,North,0,0.0,0.0,87,0.00,,,0.00,WUHU216HW,2013-09-11 09:32:00,
2013-09-11 05:37:00,74.3,69.9,30.04,North,0,0.0,0.0,86,0.00,,,0.00,WUHU216HW,2013-09-11 09:37:00,
2013-09-11 05:42:00,74.2,69.8,30.04,North,0,0.0,0.0,86,0.00,,,0.00,WUHU216HW,2013-09-11 09:42:00,
2013-09-11 05:47:00,74.2,69.8,30.04,North,0,0.0,0.0,86,0.00,,,0.00,WUHU216HW,2013-09-11 09:47:00,
2013-09-11 05:52:00,74.2,69.8,30.04,North,0,0.0,0.0,86,0.00,,,0.00,WUHU216HW,2013-09-11 09:52:00,
2013-09-11 05:57:00,74.0,69.6,30.04,North,0,0.0,0.0,86,0.00,,,0.00,WUHU216HW,2013-09-11 09:57:00,
2013-09-11 06:02:00,73.8,69.4,30.04,North,0,0.0,0.0,86,0.00,,,0.00,WUHU216HW,2013-09-11 10:02:00,
2013-09-11 06:07:00,73.8,69.4,30.04,North,0,0.0,0.0,86,0.00,,,0.00,WUHU216HW,2013-09-11 10:07:00,
2013-09-11 06:12:00,73.8,69.8,30.05,North,0,0.0,0.0,87,0.00,,,0.00,WUHU216HW,2013-09-11 10:12:00,
2013-09-11 06:17:00,73.8,69.8,30.05,North,0,0.0,0.0,87,0.00,,,0.00,WUHU216HW,2013-09-11 10:17:00,
2013-09-11 06:22:00,73.6,69.6,30.05,North,0,0.0,0.0,87,0.00,,,0.00,WUHU216HW,2013-09-11 10:22:00,
2013-09-11 06:27:00,73.6,69.6,30.05,North,0,0.0,0.0,87,0.00,,,0.00,WUHU216HW,2013-09-11 10:27:00,
2013-09-11 06:32:00,73.4,69.4,30.05,North,0,0.0,0.0,87,0.00,,,0.00,WUHU216HW,2013-09-11 10:32:00,
2013-09-11 06:37:00,73.4,69.4,30.05,North,0,0.0,0.0,87,0.00,,,0.00,WUHU216HW,2013-09-11 10:37:00,
2013-09-11 06:42:00,73.4,69.4,30.05,North,0,0.0,0.0,87,0.00,,,0.00,WUHU216HW,2013-09-11 10:42:00,
2013-09-11 06:47:00,73.4,69.4,30.06,North,0,0.0,0.0,87,0.00,,,0.00,WUHU216HW,2013-09-11 10:47:00,
2013-09-11 06:52:00,73.4,69.4,30.06,North,0,0.0,0.0,87,0.00,,,0.00,WUHU216HW,2013-09-11 10:52:00,
2013-09-11 06:57:00,73.4,69.4,30.06,North,0,0.0,0.0,87,0.00,,,0.00,WUHU216HW,2013-09-11 10:57:00,
2013-09-11 07:02:00,73.4,69.4,30.06,North,0,0.0,0.0,87,0.00,,,0.00,WUHU216HW,2013-09-11 11:02:00,
2013-09-11 07:07:00,73.4,69.4,30.06,North,0,0.0,0.0,87,0.00,,,0.00,WUHU216HW,2013-09-11 11:07:00,
2013-09-11 07:12:00,73.4,69.4,30.07,North,0,0.0,0.0,87,0.00,,,0.00,WUHU216HW,2013-09-11 11:12:00,
2013-09-11 07:17:00,73.4,69.4,30.07,North,0,0.0,0.0,87,0.00,,,0.00,WUHU216HW,2013-09-11 11:17:00,
2013-09-11 07:23:00,73.6,69.6,30.06,North,0,0.0,0.0,87,0.00,,,0.00,WUHU216HW,2013-09-11 11:23:00,
2013-09-11 07:28:00,73.8,70.0,30.06,North,0,0.0,0.0,88,0.00,,,0.00,WUHU216HW,2013-09-11 11:28:00,
2013-09-11 07:33:00,73.8,70.0,30.06,North,0,0.0,0.0,88,0.00,,,0.00,WUHU216HW,2013-09-11 11:33:00,
2013-09-11 07:38:00,73.8,70.0,30.07,North,0,0.0,0.0,88,0.00,,,0.00,WUHU216HW,2013-09-11 11:38:00,
2013-09-11 07:43:00,74.0,70.2,30.06,North,0,0.0,0.0,88,0.00,,,0.00,WUHU216HW,2013-09-11 11:43:00,
2013-09-11 07:48:00,74.2,70.4,30.06,North,0,0.0,0.0,88,0.00,,,0.00,WUHU216HW,2013-09-11 11:48:00,
2013-09-11 07:53:00,74.3,70.6,30.06,North,0,0.0,0.0,88,0.00,,,0.00,WUHU216HW,2013-09-11 11:53:00,
2013-09-11 07:58:00,74.5,70.7,30.07,North,0,0.0,0.0,88,0.00,,,0.00,WUHU216HW,2013-09-11 11:58:00,
2013-09-11 08:03:00,74.7,70.9,30.06,North,0,0.0,0.0,88,0.00,,,0.00,WUHU216HW,2013-09-11 12:03:00,
2013-09-11 08:08:00,74.9,71.1,30.06,North,0,0.0,0.0,88,0.00,,,0.00,WUHU216HW,2013-09-11 12:08:00,
2013-09-11 08:13:00,75.1,71.3,30.06,North,0,0.0,0.0,88,0.00,,,0.00,WUHU216HW,2013-09-11 12:13:00,
2013-09-11 08:15:00,75.1,71.3,30.06,North,0,0.0,0.0,88,0.00,,,0.00,WUHU216HW,2013-09-11 12:15:00,
2013-09-11 08:18:00,75.1,71.3,30.06,North,0,0.0,0.0,88,0.00,,,0.00,WUHU216HW,2013-09-11 12:18:00,
2013-09-11 08:23:00,75.1,71.3,30.06,North,0,0.0,0.0,88,0.00,,,0.00,WUHU216HW,2013-09-11 12:23:00,
2013-09-11 09:00:00,77.0,72.5,30.06,North,0,0.0,0.0,86,0.00,,,0.00,WUHU216HW,2013-09-11 13:00:00,
2013-09-11 09:05:00,77.0,72.5,30.06,North,0,0.0,0.0,86,0.00,,,0.00,WUHU216HW,2013-09-11 13:05:00,
2013-09-11 09:10:00,77.0,72.5,30.06,North,0,0.0,0.0,86,0.00,,,0.00,WUHU216HW,2013-09-11 13:10:00,
2013-09-11 15:00:00,86.9,74.7,29.99,North,0,0.0,0.0,67,0.00,,,0.00,WUHU216HW,2013-09-11 19:00:00,
2013-09-11 15:02:00,86.8,74.1,29.99,North,0,0.0,0.0,66,0.00,,,0.00,WUHU216HW,2013-09-11 19:02:00,
2013-09-11 15:05:00,86.8,74.1,29.99,North,0,0.0,0.0,66,0.00,,,0.00,WUHU216HW,2013-09-11 19:05:00,
2013-09-11 15:10:00,86.8,74.1,29.99,North,0,0.0,0.0,66,0.00,,,0.00,WUHU216HW,2013-09-11 19:10:00,
2013-09-11 17:01:00,84.6,72.5,29.95,North,0,0.0,0.0,67,0.00,,,0.00,WUHU216HW,2013-09-11 21:01:00,
2013-09-11 17:03:00,84.6,72.5,29.95,North,0,0.0,0.0,67,0.00,,,0.00,WUHU216HW,2013-09-11 21:03:00,
2013-09-11 17:06:00,84.6,72.5,29.95,North,0,0.0,0.0,67,0.00,,,0.00,WUHU216HW,2013-09-11 21:06:00,
2013-09-11 17:11:00,84.6,72.5,29.95,North,0,0.0,0.0,67,0.00,,,0.00,WUHU216HW,2013-09-11 21:11:00,
2013-09-11 18:00:00,83.0,71.3,29.94,North,0,0.0,0.0,68,0.00,,,0.00,WUHU216HW,2013-09-11 22:00:00,
2013-09-11 18:05:00,82.8,71.6,29.94,North,0,0.0,0.0,69,0.00,,,0.00,WUHU216HW,2013-09-11 22:05:00,
2013-09-11 18:10:00,82.4,71.2,29.95,North,0,0.0,0.0,69,0.00,,,0.00,WUHU216HW,2013-09-11 22:10:00,
2013-09-11 18:15:00,82.4,71.2,29.95,North,0,0.0,0.0,69,0.00,,,0.00,WUHU216HW,2013-09-11 22:15:00,
2013-09-11 18:20:00,82.3,71.0,29.96,North,0,0.0,0.0,69,0.00,,,0.00,WUHU216HW,2013-09-11 22:20:00,
2013-09-11 18:21:00,82.3,71.0,29.96,North,0,0.0,0.0,69,0.00,,,0.00,WUHU216HW,2013-09-11 22:21:00,
2013-09-11 18:25:00,82.3,71.0,29.96,North,0,0.0,0.0,69,0.00,,,0.00,WUHU216HW,2013-09-11 22:25:00,
2013-09-11 18:30:00,82.3,71.0,29.96,North,0,0.0,0.0,69,0.00,,,0.00,WUHU216HW,2013-09-11 22:30:00,
2013-09-11 19:00:00,81.2,70.9,29.97,North,0,0.0,0.0,71,0.00,,,0.00,WUHU216HW,2013-09-11 23:00:00,
2013-09-11 19:05:00,81.0,70.7,29.96,North,0,0.0,0.0,71,0.00,,,0.00,WUHU216HW,2013-09-11 23:05:00,
2013-09-11 19:10:00,80.8,70.6,29.96,North,0,0.0,0.0,71,0.00,,,0.00,WUHU216HW,2013-09-11 23:10:00,
2013-09-11 19:15:00,80.6,70.4,29.97,North,0,0.0,0.0,71,0.00,,,0.00,WUHU216HW,2013-09-11 23:15:00,
2013-09-11 19:20:00,80.5,70.7,29.97,North,0,0.0,0.0,72,0.00,,,0.00,WUHU216HW,2013-09-11 23:20:00,
2013-09-11 19:25:00,80.3,70.5,29.97,North,0,0.0,0.0,72,0.00,,,0.00,WUHU216HW,2013-09-11 23:25:00,
2013-09-11 19:30:00,80.3,70.5,29.97,North,0,0.0,0.0,72,0.00,,,0.00,WUHU216HW,2013-09-11 23:30:00,
2013-09-11 19:35:00,80.3,70.5,29.98,North,0,0.0,0.0,72,0.00,,,0.00,WUHU216HW,2013-09-11 23:35:00,
2013-09-11 19:40:00,80.1,70.7,29.98,North,0,0.0,0.0,73,0.00,,,0.00,WUHU216HW,2013-09-11 23:40:00,
2013-09-11 19:45:00,80.1,70.7,29.98,North,0,0.0,0.0,73,0.00,,,0.00,WUHU216HW,2013-09-11 23:45:00,
2013-09-11 19:50:00,79.9,70.5,29.98,North,0,0.0,0.0,73,0.00,,,0.00,WUHU216HW,2013-09-11 23:50:00,
2013-09-11 19:55:00,79.9,70.5,29.98,North,0,0.0,0.0,73,0.00,,,0.00,WUHU216HW,2013-09-11 23:55:00,
2013-09-11 20:00:00,79.9,70.5,29.97,North,0,0.0,0.0,73,0.00,,,0.00,WUHU216HW,2013-09-12 00:00:00,
2013-09-11 20:05:00,79.9,70.5,29.98,North,0,0.0,0.0,73,0.00,,,0.00,WUHU216HW,2013-09-12 00:05:00,
2013-09-11 20:10:00,79.9,70.9,29.97,North,0,0.0,0.0,74,0.00,,,0.00,WUHU216HW,2013-09-12 00:10:00,
2013-09-11 20:15:00,79.9,70.9,29.97,North,0,0.0,0.0,74,0.00,,,0.00,WUHU216HW,2013-09-12 00:15:00,
2013-09-11 20:20:00,79.9,70.9,29.97,North,0,0.0,0.0,74,0.00,,,0.00,WUHU216HW,2013-09-12 00:20:00,
2013-09-11 20:25:00,79.7,70.8,29.97,North,0,0.0,0.0,74,0.00,,,0.00,WUHU216HW,2013-09-12 00:25:00,
2013-09-11 20:30:00,79.7,70.8,29.98,North,0,0.0,0.0,74,0.00,,,0.00,WUHU216HW,2013-09-12 00:30:00,
2013-09-11 20:35:00,79.6,70.6,29.98,North,0,0.0,0.0,74,0.00,,,0.00,WUHU216HW,2013-09-12 00:35:00,
2013-09-11 20:40:00,79.6,70.9,29.98,North,0,0.0,0.0,75,0.00,,,0.00,WUHU216HW,2013-09-12 00:40:00,
2013-09-11 20:45:00,79.6,70.9,29.98,North,0,0.0,0.0,75,0.00,,,0.00,WUHU216HW,2013-09-12 00:45:00,
2013-09-11 20:50:00,79.6,70.9,29.98,North,0,0.0,0.0,75,0.00,,,0.00,WUHU216HW,2013-09-12 00:50:00,
2013-09-11 20:55:00,79.4,70.7,29.98,North,0,0.0,0.0,75,0.00,,,0.00,WUHU216HW,2013-09-12 00:55:00,
2013-09-11 21:00:00,79.4,70.7,29.98,North,0,0.0,0.0,75,0.00,,,0.00,WUHU216HW,2013-09-12 01:00:00,
2013-09-11 21:05:00,79.4,70.7,29.98,North,0,0.0,0.0,75,0.00,,,0.00,WUHU216HW,2013-09-12 01:05:00,
2013-09-11 21:10:00,79.4,70.7,29.98,North,0,0.0,0.0,75,0.00,,,0.00,WUHU216HW,2013-09-12 01:10:00,
2013-09-11 21:15:00,79.4,70.7,29.98,North,0,0.0,0.0,75,0.00,,,0.00,WUHU216HW,2013-09-12 01:15:00,
2013-09-11 21:20:00,79.2,70.6,29.98,North,0,0.0,0.0,75,0.00,,,0.00,WUHU216HW,2013-09-12 01:20:00,
2013-09-11 21:25:00,79.4,70.7,29.97,North,0,0.0,0.0,75,0.00,,,0.00,WUHU216HW,2013-09-12 01:25:00,
2013-09-11 21:30:00,79.4,70.7,29.97,North,0,0.0,0.0,75,0.00,,,0.00,WUHU216HW,2013-09-12 01:30:00,
2013-09-11 21:35:00,79.4,70.7,29.97,North,0,0.0,0.0,75,0.00,,,0.00,WUHU216HW,2013-09-12 01:35:00,
2013-09-11 21:40:00,79.4,70.7,29.97,North,0,0.0,0.0,75,0.00,,,0.00,WUHU216HW,2013-09-12 01:40:00,
2013-09-11 21:45:00,79.4,70.7,29.97,North,0,0.0,0.0,75,0.00,,,0.00,WUHU216HW,2013-09-12 01:45:00,
2013-09-11 21:50:00,79.2,70.6,29.97,North,0,0.0,0.0,75,0.00,,,0.00,WUHU216HW,2013-09-12 01:50:00,
2013-09-11 21:55:00,79.2,70.6,29.97,North,0,0.0,0.0,75,0.00,,,0.00,WUHU216HW,2013-09-12 01:55:00,
2013-09-11 22:00:00,79.2,70.6,29.97,North,0,0.0,0.0,75,0.00,,,0.00,WUHU216HW,2013-09-12 02:00:00,
2013-09-11 22:05:00,79.2,70.6,29.97,North,0,0.0,0.0,75,0.00,,,0.00,WUHU216HW,2013-09-12 02:05:00,
2013-09-11 22:10:00,79.2,70.6,29.97,North,0,0.0,0.0,75,0.00,,,0.00,WUHU216HW,2013-09-12 02:10:00,
2013-09-11 22:15:00,79.2,70.6,29.97,North,0,0.0,0.0,75,0.00,,,0.00,WUHU216HW,2013-09-12 02:15:00,
2013-09-11 22:20:00,79.0,70.4,29.97,North,0,0.0,0.0,75,0.00,,,0.00,WUHU216HW,2013-09-12 02:20:00,
2013-09-11 22:25:00,79.0,70.4,29.97,North,0,0.0,0.0,75,0.00,,,0.00,WUHU216HW,2013-09-12 02:25:00,
2013-09-11 22:30:00,79.0,70.4,29.97,North,0,0.0,0.0,75,0.00,,,0.00,WUHU216HW,2013-09-12 02:30:00,
2013-09-11 22:35:00,78.8,70.2,29.97,North,0,0.0,0.0,75,0.00,,,0.00,WUHU216HW,2013-09-12 02:35:00,
2013-09-11 22:40:00,78.8,70.6,29.97,North,0,0.0,0.0,76,0.00,,,0.00,WUHU216HW,2013-09-12 02:40:00,
2013-09-11 22:45:00,78.8,70.6,29.97,North,0,0.0,0.0,76,0.00,,,0.00,WUHU216HW,2013-09-12 02:45:00,
2013-09-11 22:50:00,78.8,70.6,29.97,North,0,0.0,0.0,76,0.00,,,0.00,WUHU216HW,2013-09-12 02:50:00,
2013-09-11 22:55:00,78.8,70.6,29.97,North,0,0.0,0.0,76,0.00,,,0.00,WUHU216HW,2013-09-12 02:55:00,
2013-09-11 23:00:00,78.8,70.6,29.97,North,0,0.0,0.0,76,0.00,,,0.00,WUHU216HW,2013-09-12 03:00:00,
2013-09-11 23:05:00,78.8,70.6,29.97,North,0,0.0,0.0,76,0.00,,,0.00,WUHU216HW,2013-09-12 03:05:00,
2013-09-11 23:10:00,78.8,70.6,29.96,North,0,0.0,0.0,76,0.00,,,0.00,WUHU216HW,2013-09-12 03:10:00,
2013-09-11 23:15:00,78.8,70.6,29.96,North,0,0.0,0.0,76,0.00,,,0.00,WUHU216HW,2013-09-12 03:15:00,
2013-09-11 23:20:00,78.7,70.4,29.96,North,0,0.0,0.0,76,0.00,,,0.00,WUHU216HW,2013-09-12 03:20:00,
2013-09-11 23:25:00,78.7,70.4,29.96,North,0,0.0,0.0,76,0.00,,,0.00,WUHU216HW,2013-09-12 03:25:00,
2013-09-11 23:30:00,78.5,70.3,29.96,North,0,0.0,0.0,76,0.00,,,0.00,WUHU216HW,2013-09-12 03:30:00,
2013-09-11 23:35:00,78.5,70.3,29.96,North,0,0.0,0.0,76,0.00,,,0.00,WUHU216HW,2013-09-12 03:35:00,
2013-09-11 23:40:00,78.5,70.3,29.96,North,0,0.0,0.0,76,0.00,,,0.00,WUHU216HW,2013-09-12 03:40:00,
2013-09-11 23:45:00,78.5,70.3,29.96,North,0,0.0,0.0,76,0.00,,,0.00,WUHU216HW,2013-09-12 03:45:00,
2013-09-11 23:50:00,78.3,70.1,29.95,North,0,0.0,0.0,76,0.00,,,0.00,WUHU216HW,2013-09-12 03:50:00,
2013-09-11 23:55:00,78.3,70.1,29.95,North,0,0.0,0.0,76,0.00,,,0.00,WUHU216HW,2013-09-12 03:55:00,